Home > Products > Valid Products > SSM

000
SMZS01 NSTU 251757
SSMPPG
AAXX 25184
91765 11469 60000 10257 20252 30108 40112 52014 60051 70282 84410
333 5699/ 70099 555 92518=




000
SMZS01 NSTU 251757
SSMPPG
AAXX 25184
91765 11469 60000 10257 20252 30108 40112 52014 60051 70282 84410
333 5699/ 70099 555 92518=




000
SMZS01 NSTU 251200
SSMPPG
AAXX 25124
91765 11466 82003 10257 20243 30107 40110 57002 60051 78082 8582/
333 10322 56499 59007 70048 555 92512=




000
SMZS01 NSTU 251200
SSMPPG
AAXX 25124
91765 11466 82003 10257 20243 30107 40110 57002 60051 78082 8582/
333 10322 56499 59007 70048 555 92512=




000
SMZS01 NSTU 250553
SSMPPG
AAXX 25064
91765 32466 30608 10283 20250 30091 40095 52008 83100 333 561//
70000 555 92506




000
SMZS01 NSTU 242357
SSMPPG
AAXX 25004
91765 32569 11010 10318 20258 30103 40107 56019 81100 333 20257
562// 59012 555 92500=




000
SMZS01 NSTU 241802
SSMPPG
AAXX 24184
91765 32469 30907 10278 20248 30112 40115 52010 82140 333 5629/ 555
92418=




000
SMZS01 NSTU 241156
SSMPPG
AAXX 24124
91765 32566 41006 10268 20240 30113 40117 57017 82141 333 10310
56299 59005 555 92412=




000
SMZS01 NSTU 240553
SSMPPG
AAXX 24064
91765 32566 41007 10275 20236 30115 40119 52008 84400 333 562//
70000 555 92406




000
SMZS01 NSTU 232355
SSMPPG
AAXX 24004
91765 32569 40908 10305 20246 30115 40119 57012 82140 333 20269
5629/ 58006 555 92400=




000
SMZS01 NSTU 231754
SSMPPG
AAXX 23184
91765 32569 50915 10273 20239 30117 40120 51008 84180 333 5622/ 555
92318=




000
SMZS01 NSTU 231754
SSMPPG
AAXX 23184
91765 32569 50915 10273 20239 30117 40120 51008 84180 333 5622/ 555
92318=




000
SMZS01 NSTU 231156
SSMPPG
AAXX 23124
91765 32566 81109 10272 20239 30119 40122 56012 888// 333 10305
56299 58007 555 92312=




000
SMZS01 NSTU 230602
SSMPPG
AAXX 23064
91765 32566 60908 10271 20229 30120 40124 52015 84871 333 56299
70000 555 92306





000
SMZS01 NSTU 222354
SSMPPG
AAXX 23004
91765 32569 71310 10301 20235 30110 40113 57019 84411 333 20266
56399 58008 555 92300=





000
SMZS01 NSTU 222354
SSMPPG
AAXX 23004
91765 32569 71310 10301 20235 30110 40113 57019 84411 333 20266
56399 58008 555 92300=





    US Dept of Commerce
    National Oceanic and Atmospheric Administration
    National Weather Service
    1325 East West Highway
    Silver Spring, MD 20910
    Page Author: NWS Internet Services Team
Disclaimer
Information Quality
Credits
Glossary
Privacy Policy
Freedom of Information Act (FOIA)
About Us
Career Opportunities